sensor_id;sensor_type;location;lat;lon;timestamp;pressure;altitude;pressure_sealevel;temperature;humidity
61674;BME280;47573;43.832;5.974;2022-11-11T00:04:53;96469.78;;;22.48;71.04
61674;BME280;47573;43.832;5.974;2022-11-11T00:09:54;96456.41;;;22.47;71.12
61674;BME280;47573;43.832;5.974;2022-11-11T00:14:55;96468.34;;;22.46;70.68
61674;BME280;47573;43.832;5.974;2022-11-11T00:19:55;96472.09;;;22.45;70.85
61674;BME280;47573;43.832;5.974;2022-11-11T00:24:57;96462.47;;;22.35;70.73
61674;BME280;47573;43.832;5.974;2022-11-11T00:29:58;96482.81;;;22.39;70.75
61674;BME280;47573;43.832;5.974;2022-11-11T00:34:59;96478.19;;;22.40;70.39
61674;BME280;47573;43.832;5.974;2022-11-11T00:40:01;96481.13;;;22.38;70.70
61674;BME280;47573;43.832;5.974;2022-11-11T00:45:02;96488.25;;;22.39;70.38
61674;BME280;47573;43.832;5.974;2022-11-11T00:50:05;96488.66;;;22.36;70.22
61674;BME280;47573;43.832;5.974;2022-11-11T00:55:07;96494.94;;;22.37;70.31
61674;BME280;47573;43.832;5.974;2022-11-11T01:05:14;96492.84;;;22.32;70.10
61674;BME280;47573;43.832;5.974;2022-11-11T01:10:17;96493.25;;;22.29;70.08
61674;BME280;47573;43.832;5.974;2022-11-11T01:15:17;96492.00;;;22.25;70.09
61674;BME280;47573;43.832;5.974;2022-11-11T01:20:18;96492.00;;;22.25;70.09
61674;BME280;47573;43.832;5.974;2022-11-11T01:25:20;96497.88;;;22.22;69.93
61674;BME280;47573;43.832;5.974;2022-11-11T01:30:21;96509.16;;;22.19;70.23
61674;BME280;47573;43.832;5.974;2022-11-11T01:35:21;96507.69;;;22.17;70.22
61674;BME280;47573;43.832;5.974;2022-11-11T01:40:24;96502.47;;;22.15;70.23
61674;BME280;47573;43.832;5.974;2022-11-11T01:45:44;96498.28;;;22.13;70.16
61674;BME280;47573;43.832;5.974;2022-11-11T01:50:45;96502.28;;;22.10;69.90
61674;BME280;47573;43.832;5.974;2022-11-11T01:55:47;96501.22;;;22.11;70.08
61674;BME280;47573;43.832;5.974;2022-11-11T02:00:48;96507.09;;;22.08;69.97
61674;BME280;47573;43.832;5.974;2022-11-11T02:05:48;96512.94;;;22.05;70.33
61674;BME280;47573;43.832;5.974;2022-11-11T02:10:51;96506.25;;;22.01;70.24
61674;BME280;47573;43.832;5.974;2022-11-11T02:15:51;96502.91;;;21.99;70.02
61674;BME280;47573;43.832;5.974;2022-11-11T02:20:52;96507.72;;;21.97;70.24
61674;BME280;47573;43.832;5.974;2022-11-11T02:25:55;96501.66;;;21.95;70.11
61674;BME280;47573;43.832;5.974;2022-11-11T02:30:56;96505.59;;;21.93;70.15
61674;BME280;47573;43.832;5.974;2022-11-11T02:35:58;96498.06;;;21.88;70.35
61674;BME280;47573;43.832;5.974;2022-11-11T02:41:01;96490.75;;;21.89;70.10
61674;BME280;47573;43.832;5.974;2022-11-11T02:46:03;96488.25;;;21.87;70.08
61674;BME280;47573;43.832;5.974;2022-11-11T02:51:04;96484.28;;;21.83;70.36
61674;BME280;47573;43.832;5.974;2022-11-11T02:56:06;96483.63;;;21.81;70.22
61674;BME280;47573;43.832;5.974;2022-11-11T03:01:07;96474.84;;;21.79;70.28
61674;BME280;47573;43.832;5.974;2022-11-11T03:06:07;96488.22;;;21.81;70.14
61674;BME280;47573;43.832;5.974;2022-11-11T03:11:09;96476.13;;;21.83;70.20
61674;BME280;47573;43.832;5.974;2022-11-11T03:16:09;96483.63;;;21.81;70.02
61674;BME280;47573;43.832;5.974;2022-11-11T03:21:10;96480.28;;;21.79;69.93
61674;BME280;47573;43.832;5.974;2022-11-11T03:26:12;96489.06;;;21.81;69.94
61674;BME280;47573;43.832;5.974;2022-11-11T03:31:12;96485.06;;;21.77;69.96
61674;BME280;47573;43.832;5.974;2022-11-11T03:36:13;96496.59;;;21.79;69.92
61674;BME280;47573;43.832;5.974;2022-11-11T03:41:15;96498.66;;;21.77;69.96
61674;BME280;47573;43.832;5.974;2022-11-11T03:46:15;96490.75;;;21.82;69.93
61674;BME280;47573;43.832;5.974;2022-11-11T03:51:15;96486.53;;;21.80;69.86
61674;BME280;47573;43.832;5.974;2022-11-11T03:56:17;96505.75;;;21.78;69.96
61674;BME280;47573;43.832;5.974;2022-11-11T04:01:18;96505.75;;;21.78;69.94
61674;BME280;47573;43.832;5.974;2022-11-11T04:06:18;96515.38;;;21.74;70.05
61674;BME280;47573;43.832;5.974;2022-11-11T04:11:23;96511.84;;;21.80;69.96
61674;BME280;47573;43.832;5.974;2022-11-11T04:16:24;96517.06;;;21.75;70.25
61674;BME280;47573;43.832;5.974;2022-11-11T04:21:24;96508.25;;;21.73;69.95
61674;BME280;47573;43.832;5.974;2022-11-11T04:26:26;96507.84;;;21.76;69.73
61674;BME280;47573;43.832;5.974;2022-11-11T04:31:27;96504.28;;;21.69;70.05
61674;BME280;47573;43.832;5.974;2022-11-11T04:36:27;96505.72;;;21.65;70.13
61674;BME280;47573;43.832;5.974;2022-11-11T04:41:29;96503.22;;;21.63;70.05
61674;BME280;47573;43.832;5.974;2022-11-11T04:46:29;96514.09;;;21.57;70.35
61674;BME280;47573;43.832;5.974;2022-11-11T04:51:30;96521.22;;;21.58;70.09
61674;BME280;47573;43.832;5.974;2022-11-11T04:56:32;96521.59;;;21.55;70.05
61674;BME280;47573;43.832;5.974;2022-11-11T05:01:32;96522.84;;;21.52;70.27
61674;BME280;47573;43.832;5.974;2022-11-11T05:06:33;96531.22;;;21.51;70.11
61674;BME280;47573;43.832;5.974;2022-11-11T05:11:35;96535.00;;;21.50;70.01
61674;BME280;47573;43.832;5.974;2022-11-11T05:16:39;96533.72;;;21.46;69.97
61674;BME280;47573;43.832;5.974;2022-11-11T05:21:40;96524.94;;;21.44;70.24
61674;BME280;47573;43.832;5.974;2022-11-11T05:26:42;96526.34;;;21.40;70.05
61674;BME280;47573;43.832;5.974;2022-11-11T05:31:42;96543.72;;;21.39;70.17
61674;BME280;47573;43.832;5.974;2022-11-11T05:36:43;96563.13;;;21.36;70.26
61674;BME280;47573;43.832;5.974;2022-11-11T05:41:44;96577.56;;;21.36;70.20
61674;BME280;47573;43.832;5.974;2022-11-11T05:46:45;96582.56;;;21.33;70.10
61674;BME280;47573;43.832;5.974;2022-11-11T05:51:46;96577.53;;;21.30;70.17
61674;BME280;47573;43.832;5.974;2022-11-11T05:56:48;96590.47;;;21.28;70.21
61674;BME280;47573;43.832;5.974;2022-11-11T06:01:49;96604.91;;;21.28;70.12
61674;BME280;47573;43.832;5.974;2022-11-11T06:06:49;96598.84;;;21.26;69.95
61674;BME280;47573;43.832;5.974;2022-11-11T06:11:51;96592.97;;;21.23;70.05
61674;BME280;47573;43.832;5.974;2022-11-11T06:16:51;96602.56;;;21.19;70.07
61674;BME280;47573;43.832;5.974;2022-11-11T06:21:52;96610.09;;;21.17;70.05
61674;BME280;47573;43.832;5.974;2022-11-11T06:26:54;96606.72;;;21.15;70.01
61674;BME280;47573;43.832;5.974;2022-11-11T06:31:55;96612.16;;;21.15;69.86
61674;BME280;47573;43.832;5.974;2022-11-11T06:36:55;96619.25;;;21.16;69.73
61674;BME280;47573;43.832;5.974;2022-11-11T06:41:57;96621.75;;;21.11;70.01
61674;BME280;47573;43.832;5.974;2022-11-11T06:46:57;96619.94;;;20.97;70.40
61674;BME280;47573;43.832;5.974;2022-11-11T06:51:58;96632.50;;;20.98;70.34
61674;BME280;47573;43.832;5.974;2022-11-11T06:57:00;96638.03;;;21.11;69.87
61674;BME280;47573;43.832;5.974;2022-11-11T07:02:00;96642.69;;;21.17;69.59
61674;BME280;47573;43.832;5.974;2022-11-11T07:07:00;96645.22;;;21.25;69.05
61674;BME280;47573;43.832;5.974;2022-11-11T07:12:03;96654.00;;;21.27;69.06
61674;BME280;47573;43.832;5.974;2022-11-11T07:17:03;96662.38;;;21.25;69.17
61674;BME280;47573;43.832;5.974;2022-11-11T07:22:04;96654.22;;;21.25;69.05
61674;BME280;47573;43.832;5.974;2022-11-11T07:27:06;96671.16;;;21.27;69.07
61674;BME280;47573;43.832;5.974;2022-11-11T07:32:06;96679.09;;;21.29;69.12
61674;BME280;47573;43.832;5.974;2022-11-11T07:37:06;96692.69;;;21.29;68.94
61674;BME280;47573;43.832;5.974;2022-11-11T07:42:08;96692.47;;;21.30;68.87
61674;BME280;47573;43.832;5.974;2022-11-11T07:47:09;96704.19;;;21.31;68.84
61674;BME280;47573;43.832;5.974;2022-11-11T07:52:10;96699.59;;;21.31;69.02
61674;BME280;47573;43.832;5.974;2022-11-11T07:57:12;96705.69;;;21.33;68.80
61674;BME280;47573;43.832;5.974;2022-11-11T08:02:13;96700.94;;;21.42;68.59
61674;BME280;47573;43.832;5.974;2022-11-11T08:07:13;96697.53;;;21.40;67.07
61674;BME280;47573;43.832;5.974;2022-11-11T08:12:15;96692.53;;;21.37;66.42
61674;BME280;47573;43.832;5.974;2022-11-11T08:17:16;96698.97;;;21.36;66.00
61674;BME280;47573;43.832;5.974;2022-11-11T08:22:16;96695.06;;;21.45;65.73
61674;BME280;47573;43.832;5.974;2022-11-11T08:27:18;96699.88;;;21.43;65.65
61674;BME280;47573;43.832;5.974;2022-11-11T08:32:18;96697.63;;;21.53;64.54
61674;BME280;47573;43.832;5.974;2022-11-11T08:37:19;96692.22;;;21.59;64.63
61674;BME280;47573;43.832;5.974;2022-11-11T08:42:21;96703.34;;;21.65;65.31
61674;BME280;47573;43.832;5.974;2022-11-11T08:47:21;96708.16;;;21.69;64.32
61674;BME280;47573;43.832;5.974;2022-11-11T08:52:22;96709.03;;;21.76;63.98
61674;BME280;47573;43.832;5.974;2022-11-11T08:57:23;96725.75;;;21.73;65.26
61674;BME280;47573;43.832;5.974;2022-11-11T09:02:24;96712.19;;;21.80;63.84
61674;BME280;47573;43.832;5.974;2022-11-11T09:07:25;96716.66;;;21.87;65.49
61674;BME280;47573;43.832;5.974;2022-11-11T09:12:27;96713.34;;;21.92;63.57
61674;BME280;47573;43.832;5.974;2022-11-11T09:17:28;96707.44;;;21.88;65.37
61674;BME280;47573;43.832;5.974;2022-11-11T09:22:28;96707.06;;;21.91;64.20
61674;BME280;47573;43.832;5.974;2022-11-11T09:27:30;96717.53;;;22.01;65.02
61674;BME280;47573;43.832;5.974;2022-11-11T09:32:31;96714.63;;;22.02;64.48
61674;BME280;47573;43.832;5.974;2022-11-11T09:37:31;96720.09;;;22.09;64.73
61674;BME280;47573;43.832;5.974;2022-11-11T09:42:37;96720.94;;;22.09;64.61
61674;BME280;47573;43.832;5.974;2022-11-11T09:47:44;96718.84;;;22.11;64.48
61674;BME280;47573;43.832;5.974;2022-11-11T09:52:53;96720.97;;;22.16;64.24
61674;BME280;47573;43.832;5.974;2022-11-11T09:58:00;96721.41;;;22.26;63.75
61674;BME280;47573;43.832;5.974;2022-11-11T10:03:10;96717.66;;;22.27;63.96
61674;BME280;47573;43.832;5.974;2022-11-11T10:08:15;96728.97;;;22.30;63.71
61674;BME280;47573;43.832;5.974;2022-11-11T10:13:19;96719.97;;;22.36;63.62
61674;BME280;47573;43.832;5.974;2022-11-11T10:18:42;96713.47;;;22.37;63.25
61674;BME280;47573;43.832;5.974;2022-11-11T10:23:51;96716.22;;;22.44;63.23
61674;BME280;47573;43.832;5.974;2022-11-11T10:28:57;96708.50;;;22.48;63.18
61674;BME280;47573;43.832;5.974;2022-11-11T10:34:00;96700.97;;;22.50;62.93
61674;BME280;47573;43.832;5.974;2022-11-11T10:39:03;96698.44;;;22.55;62.82
61674;BME280;47573;43.832;5.974;2022-11-11T10:44:19;96685.88;;;22.54;62.92
61674;BME280;47573;43.832;5.974;2022-11-11T10:49:23;96682.09;;;22.55;63.04
61674;BME280;47573;43.832;5.974;2022-11-11T10:54:31;96675.84;;;22.61;62.82
61674;BME280;47573;43.832;5.974;2022-11-11T10:59:38;96662.88;;;22.63;62.79
61674;BME280;47573;43.832;5.974;2022-11-11T11:04:44;96652.44;;;22.66;62.51
61674;BME280;47573;43.832;5.974;2022-11-11T11:09:51;96642.97;;;22.69;62.66
61674;BME280;47573;43.832;5.974;2022-11-11T11:14:59;96629.81;;;22.72;62.47
61674;BME280;47573;43.832;5.974;2022-11-11T11:20:11;96622.25;;;22.81;61.98
61674;BME280;47573;43.832;5.974;2022-11-11T11:25:13;96626.44;;;22.77;62.52
61674;BME280;47573;43.832;5.974;2022-11-11T11:30:17;96631.88;;;22.83;62.31
61674;BME280;47573;43.832;5.974;2022-11-11T11:35:30;96634.81;;;22.82;62.25
61674;BME280;47573;43.832;5.974;2022-11-11T11:40:50;96633.34;;;22.79;62.29
61674;BME280;47573;43.832;5.974;2022-11-11T11:45:56;96628.34;;;22.83;62.31
61674;BME280;47573;43.832;5.974;2022-11-11T11:51:05;96625.63;;;22.83;62.16
61674;BME280;47573;43.832;5.974;2022-11-11T11:56:14;96612.19;;;22.88;61.74
61674;BME280;47573;43.832;5.974;2022-11-11T12:01:22;96610.31;;;22.88;60.60
61674;BME280;47573;43.832;5.974;2022-11-11T12:06:33;96600.88;;;22.84;60.81
61674;BME280;47573;43.832;5.974;2022-11-11T12:11:41;96588.72;;;22.87;60.91
61674;BME280;47573;43.832;5.974;2022-11-11T12:16:52;96588.72;;;22.87;60.70
61674;BME280;47573;43.832;5.974;2022-11-11T12:21:59;96584.53;;;22.84;61.02
61674;BME280;47573;43.832;5.974;2022-11-11T12:27:10;96584.72;;;22.96;60.91
61674;BME280;47573;43.832;5.974;2022-11-11T12:37:46;96583.25;;;23.00;60.89
61674;BME280;47573;43.832;5.974;2022-11-11T12:43:05;96574.88;;;23.01;60.74
61674;BME280;47573;43.832;5.974;2022-11-11T12:48:27;96568.16;;;23.04;60.90
61674;BME280;47573;43.832;5.974;2022-11-11T12:53:37;96559.78;;;23.05;60.78
61674;BME280;47573;43.832;5.974;2022-11-11T12:58:45;96567.72;;;23.07;60.65
61674;BME280;47573;43.832;5.974;2022-11-11T13:03:57;96565.22;;;23.12;60.63
61674;BME280;47573;43.832;5.974;2022-11-11T13:09:13;96558.25;;;23.23;60.13
61674;BME280;47573;43.832;5.974;2022-11-11T13:14:33;96550.09;;;23.23;60.44
61674;BME280;47573;43.832;5.974;2022-11-11T13:19:40;96549.25;;;23.22;60.36
61674;BME280;47573;43.832;5.974;2022-11-11T13:24:42;96543.34;;;23.25;59.89
61674;BME280;47573;43.832;5.974;2022-11-11T13:29:55;96546.75;;;23.21;60.08
61674;BME280;47573;43.832;5.974;2022-11-11T13:35:00;96532.50;;;23.18;60.12
61674;BME280;47573;43.832;5.974;2022-11-11T13:40:03;96539.59;;;23.26;60.23
61674;BME280;47573;43.832;5.974;2022-11-11T13:45:07;96536.84;;;23.26;60.22
61674;BME280;47573;43.832;5.974;2022-11-11T13:50:24;96530.34;;;23.27;60.34
61674;BME280;47573;43.832;5.974;2022-11-11T13:55:30;96533.75;;;23.23;60.46
61674;BME280;47573;43.832;5.974;2022-11-11T14:00:34;96529.56;;;23.20;60.55
61674;BME280;47573;43.832;5.974;2022-11-11T14:05:37;96533.50;;;23.24;59.73
61674;BME280;47573;43.832;5.974;2022-11-11T14:10:55;96538.34;;;23.22;60.01
61674;BME280;47573;43.832;5.974;2022-11-11T14:15:57;96540.84;;;23.24;59.77
61674;BME280;47573;43.832;5.974;2022-11-11T14:20:59;96543.78;;;23.22;60.17
61674;BME280;47573;43.832;5.974;2022-11-11T14:26:30;96545.84;;;23.33;56.27
61674;BME280;47573;43.832;5.974;2022-11-11T14:31:49;96546.69;;;23.27;56.23
61674;BME280;47573;43.832;5.974;2022-11-11T14:37:00;96543.78;;;23.35;56.05
61674;BME280;47573;43.832;5.974;2022-11-11T14:42:04;96548.59;;;23.33;57.48
61674;BME280;47573;43.832;5.974;2022-11-11T14:47:31;96550.28;;;23.21;59.50
61674;BME280;47573;43.832;5.974;2022-11-11T14:52:37;96550.97;;;23.10;59.79
61674;BME280;47573;43.832;5.974;2022-11-11T14:57:40;96555.16;;;23.06;60.36
61674;BME280;47573;43.832;5.974;2022-11-11T15:02:48;96546.38;;;23.04;60.86
61674;BME280;47573;43.832;5.974;2022-11-11T15:08:02;96558.09;;;22.98;61.07
61674;BME280;47573;43.832;5.974;2022-11-11T15:13:39;96558.06;;;23.11;59.29
61674;BME280;47573;43.832;5.974;2022-11-11T15:18:56;96564.38;;;23.05;58.00
61674;BME280;47573;43.832;5.974;2022-11-11T15:24:12;96570.69;;;22.99;58.39
61674;BME280;47573;43.832;5.974;2022-11-11T15:29:28;96569.03;;;22.85;58.99
61674;BME280;47573;43.832;5.974;2022-11-11T15:34:39;96565.25;;;22.40;57.07
61674;BME280;47573;43.832;5.974;2022-11-11T15:39:44;96567.75;;;22.15;56.88
61674;BME280;47573;43.832;5.974;2022-11-11T15:44:45;96574.88;;;22.03;56.78
61674;BME280;47573;43.832;5.974;2022-11-11T15:49:47;96569.00;;;22.00;56.68
61674;BME280;47573;43.832;5.974;2022-11-11T15:54:48;96568.59;;;22.35;56.69
61674;BME280;47573;43.832;5.974;2022-11-11T15:59:49;96570.72;;;22.47;58.63
61674;BME280;47573;43.832;5.974;2022-11-11T16:04:53;96572.41;;;22.61;58.62
61674;BME280;47573;43.832;5.974;2022-11-11T16:09:57;96570.75;;;22.60;59.21
61674;BME280;47573;43.832;5.974;2022-11-11T16:14:59;96577.84;;;22.61;59.69
61674;BME280;47573;43.832;5.974;2022-11-11T16:20:02;96575.28;;;22.92;58.87
61674;BME280;47573;43.832;5.974;2022-11-11T16:25:10;96570.03;;;23.10;59.12
61674;BME280;47573;43.832;5.974;2022-11-11T16:30:16;96579.81;;;23.31;58.83
61674;BME280;47573;43.832;5.974;2022-11-11T16:35:26;96588.00;;;23.37;58.81
61674;BME280;47573;43.832;5.974;2022-11-11T16:40:34;96591.13;;;23.47;59.17
61674;BME280;47573;43.832;5.974;2022-11-11T16:45:35;96594.00;;;23.52;59.08
61674;BME280;47573;43.832;5.974;2022-11-11T16:50:52;96600.13;;;23.48;60.10
61674;BME280;47573;43.832;5.974;2022-11-11T16:55:56;96600.78;;;23.43;60.18
61674;BME280;47573;43.832;5.974;2022-11-11T17:01:01;96600.78;;;23.43;60.64
61674;BME280;47573;43.832;5.974;2022-11-11T17:06:04;96603.25;;;23.51;60.67
61674;BME280;47573;43.832;5.974;2022-11-11T17:11:08;96604.13;;;23.45;60.82
61674;BME280;47573;43.832;5.974;2022-11-11T17:16:09;96616.25;;;23.56;61.03
61674;BME280;47573;43.832;5.974;2022-11-11T17:21:12;96618.75;;;23.57;61.28
61674;BME280;47573;43.832;5.974;2022-11-11T17:26:16;96613.94;;;23.59;61.76
61674;BME280;47573;43.832;5.974;2022-11-11T17:31:16;96621.25;;;23.65;61.49
61674;BME280;47573;43.832;5.974;2022-11-11T17:36:17;96623.34;;;23.63;61.82
61674;BME280;47573;43.832;5.974;2022-11-11T17:41:19;96637.59;;;23.65;62.00
61674;BME280;47573;43.832;5.974;2022-11-11T17:46:19;96632.16;;;23.65;62.38
61674;BME280;47573;43.832;5.974;2022-11-11T17:51:20;96633.81;;;23.66;62.27
61674;BME280;47573;43.832;5.974;2022-11-11T17:56:22;96638.84;;;23.69;62.65
61674;BME280;47573;43.832;5.974;2022-11-11T18:01:24;96642.19;;;23.71;62.60
61674;BME280;47573;43.832;5.974;2022-11-11T18:06:24;96635.00;;;23.83;62.80
61674;BME280;47573;43.832;5.974;2022-11-11T18:11:26;96641.72;;;23.81;62.72
61674;BME280;47573;43.832;5.974;2022-11-11T18:16:27;96644.00;;;23.90;62.70
61674;BME280;47573;43.832;5.974;2022-11-11T18:21:27;96638.78;;;23.82;63.20
61674;BME280;47573;43.832;5.974;2022-11-11T18:26:29;96637.34;;;23.80;63.73
61674;BME280;47573;43.832;5.974;2022-11-11T18:31:30;96640.66;;;23.88;63.46
61674;BME280;47573;43.832;5.974;2022-11-11T18:36:30;96643.34;;;23.95;63.71
61674;BME280;47573;43.832;5.974;2022-11-11T18:41:32;96645.00;;;23.96;63.53
61674;BME280;47573;43.832;5.974;2022-11-11T18:46:34;96643.13;;;23.96;63.39
61674;BME280;47573;43.832;5.974;2022-11-11T18:51:34;96650.06;;;24.06;63.72
61674;BME280;47573;43.832;5.974;2022-11-11T18:56:37;96644.38;;;24.01;64.11
61674;BME280;47573;43.832;5.974;2022-11-11T19:01:39;96651.28;;;24.10;63.97
61674;BME280;47573;43.832;5.974;2022-11-11T19:06:40;96648.78;;;24.02;64.03
61674;BME280;47573;43.832;5.974;2022-11-11T19:11:44;96643.72;;;24.12;64.03
61674;BME280;47573;43.832;5.974;2022-11-11T19:16:45;96647.06;;;24.14;64.12
61674;BME280;47573;43.832;5.974;2022-11-11T19:21:46;96647.22;;;24.19;63.97
61674;BME280;47573;43.832;5.974;2022-11-11T19:26:49;96649.06;;;24.25;64.24
61674;BME280;47573;43.832;5.974;2022-11-11T19:31:49;96665.47;;;24.25;64.31
61674;BME280;47573;43.832;5.974;2022-11-11T19:36:50;96663.16;;;24.28;64.42
61674;BME280;47573;43.832;5.974;2022-11-11T19:41:52;96654.13;;;24.28;64.58
61674;BME280;47573;43.832;5.974;2022-11-11T19:46:52;96658.31;;;24.30;64.83
61674;BME280;47573;43.832;5.974;2022-11-11T19:51:53;96661.22;;;24.29;64.86
61674;BME280;47573;43.832;5.974;2022-11-11T19:56:55;96664.59;;;24.31;64.67
61674;BME280;47573;43.832;5.974;2022-11-11T20:01:55;96669.63;;;24.34;64.41
61674;BME280;47573;43.832;5.974;2022-11-11T20:06:56;96679.50;;;24.35;64.45
61674;BME280;47573;43.832;5.974;2022-11-11T20:11:57;96685.94;;;24.47;64.43
61674;BME280;47573;43.832;5.974;2022-11-11T20:16:58;96688.66;;;24.47;64.77
61674;BME280;47573;43.832;5.974;2022-11-11T20:21:58;96690.94;;;24.50;64.62
61674;BME280;47573;43.832;5.974;2022-11-11T20:27:00;96700.97;;;24.56;64.81
61674;BME280;47573;43.832;5.974;2022-11-11T20:32:01;96697.25;;;24.50;64.76
61674;BME280;47573;43.832;5.974;2022-11-11T20:37:01;96703.25;;;24.28;65.80
61674;BME280;47573;43.832;5.974;2022-11-11T20:42:03;96702.53;;;24.08;65.98
61674;BME280;47573;43.832;5.974;2022-11-11T20:47:03;96703.63;;;23.87;66.64
61674;BME280;47573;43.832;5.974;2022-11-11T20:52:04;96713.00;;;23.97;66.41
61674;BME280;47573;43.832;5.974;2022-11-11T20:57:06;96709.66;;;23.95;67.09
61674;BME280;47573;43.832;5.974;2022-11-11T21:02:08;96716.84;;;23.83;67.85
61674;BME280;47573;43.832;5.974;2022-11-11T21:07:10;96714.56;;;23.80;66.89
61674;BME280;47573;43.832;5.974;2022-11-11T21:12:12;96718.75;;;23.76;67.34
61674;BME280;47573;43.832;5.974;2022-11-11T21:17:13;96719.00;;;23.68;67.37
61674;BME280;47573;43.832;5.974;2022-11-11T21:22:13;96720.28;;;23.59;67.34
61674;BME280;47573;43.832;5.974;2022-11-11T21:27:15;96715.66;;;23.53;67.47
61674;BME280;47573;43.832;5.974;2022-11-11T21:32:15;96708.97;;;23.49;67.74
61674;BME280;47573;43.832;5.974;2022-11-11T21:37:16;96715.47;;;23.48;67.48
61674;BME280;47573;43.832;5.974;2022-11-11T21:42:18;96719.25;;;23.41;67.94
61674;BME280;47573;43.832;5.974;2022-11-11T21:47:18;96716.53;;;23.34;67.71
61674;BME280;47573;43.832;5.974;2022-11-11T21:52:18;96714.84;;;23.33;67.93
61674;BME280;47573;43.832;5.974;2022-11-11T21:57:20;96707.06;;;23.30;67.68
61674;BME280;47573;43.832;5.974;2022-11-11T22:02:21;96702.28;;;23.32;67.72
61674;BME280;47573;43.832;5.974;2022-11-11T22:07:21;96699.31;;;23.27;67.48
61674;BME280;47573;43.832;5.974;2022-11-11T22:12:23;96699.75;;;23.24;67.15
61674;BME280;47573;43.832;5.974;2022-11-11T22:17:24;96704.75;;;23.27;66.93
61674;BME280;47573;43.832;5.974;2022-11-11T22:22:24;96699.31;;;23.27;67.23
61674;BME280;47573;43.832;5.974;2022-11-11T22:27:26;96698.69;;;23.25;67.14
61674;BME280;47573;43.832;5.974;2022-11-11T22:32:27;96694.72;;;23.21;67.34
61674;BME280;47573;43.832;5.974;2022-11-11T22:37:27;96690.53;;;23.18;67.21
61674;BME280;47573;43.832;5.974;2022-11-11T22:42:29;96689.88;;;23.16;67.10
61674;BME280;47573;43.832;5.974;2022-11-11T22:47:29;96686.53;;;23.14;67.06
61674;BME280;47573;43.832;5.974;2022-11-11T22:52:30;96697.44;;;23.14;67.11
61674;BME280;47573;43.832;5.974;2022-11-11T22:57:32;96698.72;;;23.12;66.83
61674;BME280;47573;43.832;5.974;2022-11-11T23:02:32;96703.53;;;23.10;67.31
61674;BME280;47573;43.832;5.974;2022-11-11T23:07:33;96706.69;;;23.07;66.99
61674;BME280;47573;43.832;5.974;2022-11-11T23:12:35;96698.50;;;23.07;67.15
61674;BME280;47573;43.832;5.974;2022-11-11T23:17:36;96701.44;;;23.05;67.39
61674;BME280;47573;43.832;5.974;2022-11-11T23:22:36;96677.56;;;23.01;67.76
61674;BME280;47573;43.832;5.974;2022-11-11T23:27:38;96680.06;;;22.96;67.75
61674;BME280;47573;43.832;5.974;2022-11-11T23:32:38;96678.41;;;22.95;67.65
61674;BME280;47573;43.832;5.974;2022-11-11T23:37:39;96680.50;;;22.93;67.70
61674;BME280;47573;43.832;5.974;2022-11-11T23:42:42;96671.91;;;22.89;67.73
61674;BME280;47573;43.832;5.974;2022-11-11T23:47:42;96659.53;;;22.87;68.00
61674;BME280;47573;43.832;5.974;2022-11-11T23:52:43;96653.25;;;22.86;67.56
61674;BME280;47573;43.832;5.974;2022-11-11T23:57:45;96646.97;;;22.86;67.88
